Nina's Dandy — WCZ5647 — position and weather

sailwx.info

Track history (hours):
 
Tides and Currents Weather Stations Pressure Air Temp Water Temp Dewpoint Dewpoint Depression Visibility Wind Speed Wind Dir Waves Ship Positions

Nina's Dandy

Owner: POTOMAC PARTY CRUISES INC, ALEXANDRIA, VA. More information available from US FCC via Universal Licensing System and Coast Guard Vessel Documentation Center.

Last reported at 2017-Oct-23 01:32 UTC. Time now 2017-Oct-23 06:01 UTC.
Position N 38°48' W 077°02'.

Length 13 m; draft 2 m.

Type: Passenger vessel. MMSI: 367427650.

Date/timePositionNaut miles runAvg speedWind from/ knotsBaromVisibWave heightAir tempDewpointWater temp
2017-Oct-23 01:32N 38°48' W 077°02'0 1.6
2017-Oct-23 01:27N 38°48' W 077°02'3 5.9
2017-Oct-23 01:00N 38°51' W 077°01'2 4.4
2017-Oct-23 00:30N 38°53' W 077°03'2 3.4
2017-Oct-23 00:00N 38°54' W 077°04'2 3.6
2017-Oct-22 23:29N 38°53' W 077°03'4 7.4
2017-Oct-22 23:00N 38°49' W 077°02'1 1.7
2017-Oct-22 22:28N 38°48' W 077°02'0 0.0
2017-Oct-22 21:52N 38°48' W 077°02'0 0.0
2017-Oct-22 21:29N 38°48' W 077°02'0 0.5
2017-Oct-22 21:00N 38°48' W 077°02'0 0.0
2017-Oct-22 20:29N 38°48' W 077°02'0 0.0
2017-Oct-22 19:59N 38°48' W 077°02'0 0.0
2017-Oct-22 19:28N 38°48' W 077°02'0 0.7
2017-Oct-22 18:59N 38°49' W 077°02'1 1.2
2017-Oct-22 18:30N 38°48' W 077°02'3 5.6
2017-Oct-22 17:57N 38°51' W 077°01'2 5.0
2017-Oct-22 17:29N 38°53' W 077°03'1 1.3
2017-Oct-22 16:59N 38°54' W 077°03'3 7.0
2017-Oct-22 16:29N 38°50' W 077°01'2 4.6
2017-Oct-22 15:57N 38°48' W 077°02'0 0.0
2017-Oct-22 15:28N 38°48' W 077°02'0 0.0
2017-Oct-22 14:57N 38°48' W 077°02'0 0.0
2017-Oct-22 14:26N 38°48' W 077°02'0 0.4
2017-Oct-22 14:00N 38°48' W 077°02'0 0.0
2017-Oct-22 13:30N 38°48' W 077°02'0 0.0
2017-Oct-22 13:00N 38°48' W 077°02'0 0.0
2017-Oct-22 02:22N 38°48' W 077°02'0 0.0
2017-Oct-22 01:57N 38°48' W 077°02'1 2.3
2017-Oct-22 01:29N 38°49' W 077°02'3 5.3
2017-Oct-22 01:00N 38°52' W 077°01'1 1.9
2017-Oct-22 00:29N 38°52' W 077°02'1 1.2
2017-Oct-21 23:57N 38°53' W 077°03'3 6.7
2017-Oct-21 23:28N 38°49' W 077°02'1 2.2
2017-Oct-21 22:52N 38°48' W 077°02'0 0.0
2017-Oct-21 22:27N 38°48' W 077°02'0 0.0
2017-Oct-21 21:56N 38°48' W 077°02'0 0.0
2017-Oct-19 18:22N 38°48' W 077°02'3 8.1
2017-Oct-19 18:00N 38°51' W 077°01'2 4.6
2017-Oct-19 17:30N 38°53' W 077°03'0 0.1
2017-Oct-19 17:00N 38°53' W 077°03'3 6.6
2017-Oct-19 16:30N 38°50' W 077°02'2 4.1
2017-Oct-19 16:00N 38°48' W 077°02'0 0.0
2017-Oct-19 15:30N 38°48' W 077°02'  
2017-Oct-16 14:59N 38°48' W 077°02'0 0.4
2017-Oct-16 14:30N 38°48' W 077°02'0 0.0
2017-Oct-16 13:29N 38°48' W 077°02'0 0.0
2017-Oct-16 12:59N 38°48' W 077°02'0 0.0
2017-Oct-16 12:29N 38°48' W 077°02'0 0.3
2017-Oct-16 11:59N 38°48' W 077°02'0 0.0
2017-Oct-16 11:30N 38°48' W 077°02'0 0.0
2017-Oct-15 18:34N 38°48' W 077°02'0 0.2
2017-Oct-15 18:30N 38°48' W 077°02'3 5.3
2017-Oct-15 17:59N 38°51' W 077°01'3 5.1
2017-Oct-15 17:30N 38°53' W 077°03'0 0.7
2017-Oct-15 17:00N 38°53' W 077°03'4 7.2
2017-Oct-15 16:29N 38°50' W 077°02'2 3.3
2017-Oct-15 15:59N 38°48' W 077°02'0 0.0
2017-Oct-15 15:28N 38°48' W 077°02'0 0.0
2017-Oct-15 02:05N 38°48' W 077°02'0 0.0
2017-Oct-15 02:00N 38°48' W 077°02'3 6.1
2017-Oct-15 01:29N 38°51' W 077°01'2 4.1
2017-Oct-15 01:00N 38°53' W 077°03'1 2.3
2017-Oct-15 00:30N 38°54' W 077°04'1 1.7
2017-Oct-15 00:00N 38°53' W 077°03'3 6.5
2017-Oct-14 23:30N 38°50' W 077°02'2 3.9
2017-Oct-14 22:59N 38°48' W 077°02'0 0.0
2017-Oct-14 22:29N 38°48' W 077°02'0 0.0
2017-Oct-14 22:00N 38°48' W 077°02'0 0.0
2017-Oct-14 01:57N 38°48' W 077°02'3 5.8
2017-Oct-14 01:30N 38°51' W 077°01'3 4.7
2017-Oct-14 00:58N 38°53' W 077°03'1 2.6
2017-Oct-14 00:28N 38°54' W 077°04'2 3.3
2017-Oct-14 00:00N 38°53' W 077°03'3 6.3
2017-Oct-13 23:30N 38°50' W 077°02'2 3.2
2017-Oct-13 22:59N 38°48' W 077°02'0 0.0
2017-Oct-13 22:30N 38°48' W 077°02'0 0.0
2017-Oct-13 22:00N 38°48' W 077°02'  
Track history (hours):
 
Tides and Currents Weather Stations Pressure Air Temp Water Temp Dewpoint Dewpoint Depression Visibility Wind Speed Wind Dir Waves Ship Positions

Nina's Dandy

Owner: POTOMAC PARTY CRUISES INC, ALEXANDRIA, VA. More information available from US FCC via Universal Licensing System and Coast Guard Vessel Documentation Center.

Last reported at 2017-Oct-23 01:32 UTC. Time now 2017-Oct-23 06:01 UTC.
Position N 38°48' W 077°02'.

Length 13 m; draft 2 m.

Type: Passenger vessel. MMSI: 367427650.

Date/timePositionNaut miles runAvg speedWind from/ knotsBaromVisibWave heightAir tempDewpointWater temp
2017-Oct-23 01:32N 38°48' W 077°02'0 1.6
2017-Oct-23 01:27N 38°48' W 077°02'3 5.9
2017-Oct-23 01:00N 38°51' W 077°01'2 4.4
2017-Oct-23 00:30N 38°53' W 077°03'2 3.4
2017-Oct-23 00:00N 38°54' W 077°04'2 3.6
2017-Oct-22 23:29N 38°53' W 077°03'4 7.4
2017-Oct-22 23:00N 38°49' W 077°02'1 1.7
2017-Oct-22 22:28N 38°48' W 077°02'0 0.0
2017-Oct-22 21:52N 38°48' W 077°02'0 0.0
2017-Oct-22 21:29N 38°48' W 077°02'0 0.5
2017-Oct-22 21:00N 38°48' W 077°02'0 0.0
2017-Oct-22 20:29N 38°48' W 077°02'0 0.0
2017-Oct-22 19:59N 38°48' W 077°02'0 0.0
2017-Oct-22 19:28N 38°48' W 077°02'0 0.7
2017-Oct-22 18:59N 38°49' W 077°02'1 1.2
2017-Oct-22 18:30N 38°48' W 077°02'3 5.6
2017-Oct-22 17:57N 38°51' W 077°01'2 5.0
2017-Oct-22 17:29N 38°53' W 077°03'1 1.3
2017-Oct-22 16:59N 38°54' W 077°03'3 7.0
2017-Oct-22 16:29N 38°50' W 077°01'2 4.6
2017-Oct-22 15:57N 38°48' W 077°02'0 0.0
2017-Oct-22 15:28N 38°48' W 077°02'0 0.0
2017-Oct-22 14:57N 38°48' W 077°02'0 0.0
2017-Oct-22 14:26N 38°48' W 077°02'0 0.4
2017-Oct-22 14:00N 38°48' W 077°02'0 0.0
2017-Oct-22 13:30N 38°48' W 077°02'0 0.0
2017-Oct-22 13:00N 38°48' W 077°02'0 0.0
2017-Oct-22 02:22N 38°48' W 077°02'0 0.0
2017-Oct-22 01:57N 38°48' W 077°02'1 2.3
2017-Oct-22 01:29N 38°49' W 077°02'3 5.3
2017-Oct-22 01:00N 38°52' W 077°01'1 1.9
2017-Oct-22 00:29N 38°52' W 077°02'1 1.2
2017-Oct-21 23:57N 38°53' W 077°03'3 6.7
2017-Oct-21 23:28N 38°49' W 077°02'1 2.2
2017-Oct-21 22:52N 38°48' W 077°02'0 0.0
2017-Oct-21 22:27N 38°48' W 077°02'0 0.0
2017-Oct-21 21:56N 38°48' W 077°02'0 0.0
2017-Oct-19 18:22N 38°48' W 077°02'3 8.1
2017-Oct-19 18:00N 38°51' W 077°01'2 4.6
2017-Oct-19 17:30N 38°53' W 077°03'0 0.1
2017-Oct-19 17:00N 38°53' W 077°03'3 6.6
2017-Oct-19 16:30N 38°50' W 077°02'2 4.1
2017-Oct-19 16:00N 38°48' W 077°02'0 0.0
2017-Oct-19 15:30N 38°48' W 077°02'  
2017-Oct-16 14:59N 38°48' W 077°02'0 0.4
2017-Oct-16 14:30N 38°48' W 077°02'0 0.0
2017-Oct-16 13:29N 38°48' W 077°02'0 0.0
2017-Oct-16 12:59N 38°48' W 077°02'0 0.0
2017-Oct-16 12:29N 38°48' W 077°02'0 0.3
2017-Oct-16 11:59N 38°48' W 077°02'0 0.0
2017-Oct-16 11:30N 38°48' W 077°02'0 0.0
2017-Oct-15 18:34N 38°48' W 077°02'0 0.2
2017-Oct-15 18:30N 38°48' W 077°02'3 5.3
2017-Oct-15 17:59N 38°51' W 077°01'3 5.1
2017-Oct-15 17:30N 38°53' W 077°03'0 0.7
2017-Oct-15 17:00N 38°53' W 077°03'4 7.2
2017-Oct-15 16:29N 38°50' W 077°02'2 3.3
2017-Oct-15 15:59N 38°48' W 077°02'0 0.0
2017-Oct-15 15:28N 38°48' W 077°02'0 0.0
2017-Oct-15 02:05N 38°48' W 077°02'0 0.0
2017-Oct-15 02:00N 38°48' W 077°02'3 6.1
2017-Oct-15 01:29N 38°51' W 077°01'2 4.1
2017-Oct-15 01:00N 38°53' W 077°03'1 2.3
2017-Oct-15 00:30N 38°54' W 077°04'1 1.7
2017-Oct-15 00:00N 38°53' W 077°03'3 6.5
2017-Oct-14 23:30N 38°50' W 077°02'2 3.9
2017-Oct-14 22:59N 38°48' W 077°02'0 0.0
2017-Oct-14 22:29N 38°48' W 077°02'0 0.0
2017-Oct-14 22:00N 38°48' W 077°02'0 0.0
2017-Oct-14 01:57N 38°48' W 077°02'3 5.8
2017-Oct-14 01:30N 38°51' W 077°01'3 4.7
2017-Oct-14 00:58N 38°53' W 077°03'1 2.6
2017-Oct-14 00:28N 38°54' W 077°04'2 3.3
2017-Oct-14 00:00N 38°53' W 077°03'3 6.3
2017-Oct-13 23:30N 38°50' W 077°02'2 3.2
2017-Oct-13 22:59N 38°48' W 077°02'0 0.0
2017-Oct-13 22:30N 38°48' W 077°02'0 0.0
2017-Oct-13 22:00N 38°48' W 077°02'  

Dump ship's entire track history